createdAt,value
2018-12-15T00:01:06.479Z,19.53
2018-12-15T00:03:34.265Z,18.93
2018-12-15T00:06:01.756Z,18.50
2018-12-15T00:08:29.230Z,19.77
2018-12-15T00:10:56.711Z,19.70
2018-12-15T00:13:24.202Z,18.40
2018-12-15T00:15:51.933Z,18.37
2018-12-15T00:18:19.597Z,19.67
2018-12-15T00:20:47.095Z,19.10
2018-12-15T00:23:14.566Z,18.33
2018-12-15T00:25:42.066Z,18.57
2018-12-15T00:28:09.549Z,16.77
2018-12-15T00:30:37.216Z,18.23
2018-12-15T00:33:04.808Z,17.20
2018-12-15T00:35:32.306Z,18.27
2018-12-15T00:37:59.786Z,17.40
2018-12-15T00:40:27.270Z,17.53
2018-12-15T00:42:54.819Z,16.30
2018-12-15T00:45:22.306Z,17.87
2018-12-15T00:47:49.998Z,17.40
2018-12-15T00:50:17.528Z,18.47
2018-12-15T00:52:45.009Z,18.30
2018-12-15T00:55:12.507Z,18.10
2018-12-15T00:57:40.453Z,19.80
2018-12-15T01:00:08.069Z,18.60
2018-12-15T01:02:35.546Z,18.87
2018-12-15T01:05:03.089Z,18.23
2018-12-15T01:07:30.643Z,17.63
2018-12-15T01:09:58.485Z,19.33
2018-12-15T01:12:25.953Z,18.77
2018-12-15T01:14:53.432Z,19.27
2018-12-15T01:17:21.196Z,20.67
2018-12-15T01:19:48.689Z,19.43
2018-12-15T01:22:16.173Z,19.07
2018-12-15T01:24:43.624Z,20.67
2018-12-15T01:27:11.132Z,19.70
2018-12-15T01:29:38.714Z,18.23
2018-12-15T01:32:06.196Z,19.07
2018-12-15T01:34:33.678Z,18.03
2018-12-15T01:37:01.178Z,17.83
2018-12-15T01:39:28.655Z,17.80
2018-12-15T01:41:56.138Z,18.50
2018-12-15T01:44:23.612Z,18.90
2018-12-15T01:46:51.089Z,18.10
2018-12-15T01:49:18.571Z,18.73
2018-12-15T01:51:46.059Z,17.83
2018-12-15T01:54:13.547Z,18.10
2018-12-15T01:56:41.038Z,18.53
2018-12-15T01:59:08.536Z,18.40
2018-12-15T02:01:36.039Z,18.47
2018-12-15T02:04:03.573Z,19.20
2018-12-15T02:06:31.098Z,18.03
2018-12-15T02:08:58.566Z,17.40
2018-12-15T02:11:26.069Z,19.17
2018-12-15T02:13:53.544Z,18.93
2018-12-15T02:16:21.040Z,19.53
2018-12-15T02:18:48.507Z,19.13
2018-12-15T02:21:16.245Z,19.07
2018-12-15T02:23:43.710Z,19.93
2018-12-15T02:26:11.203Z,19.00
2018-12-15T02:28:39.639Z,20.63
2018-12-15T02:31:07.132Z,19.43
2018-12-15T02:33:34.606Z,20.20
2018-12-15T02:36:02.109Z,20.70
2018-12-15T02:38:29.589Z,19.47
2018-12-15T02:40:57.069Z,20.80
2018-12-15T02:43:25.334Z,20.87
2018-12-15T02:45:53.074Z,20.83
2018-12-15T02:48:20.550Z,21.40
2018-12-15T02:50:48.020Z,20.57
2018-12-15T02:53:15.512Z,21.20
2018-12-15T02:55:42.984Z,21.77
2018-12-15T02:58:10.496Z,19.83
2018-12-15T03:00:38.060Z,23.03
2018-12-15T03:03:05.605Z,22.33
2018-12-15T03:05:33.072Z,21.50
2018-12-15T03:08:00.582Z,22.17
2018-12-15T03:10:28.082Z,23.03
2018-12-15T03:12:55.627Z,22.73
2018-12-15T03:15:23.150Z,21.33
2018-12-15T03:17:51.310Z,22.03
2018-12-15T03:20:19.122Z,21.07
2018-12-15T03:22:46.605Z,22.77
2018-12-15T03:25:14.076Z,22.60
2018-12-15T03:27:41.563Z,23.77
2018-12-15T03:30:09.091Z,21.50
2018-12-15T03:32:36.584Z,23.03
2018-12-15T03:35:04.752Z,22.87
2018-12-15T03:37:32.217Z,23.13
2018-12-15T03:39:59.702Z,22.40
2018-12-15T03:42:27.193Z,23.40
2018-12-15T03:44:54.683Z,22.27
2018-12-15T03:47:22.281Z,22.90
2018-12-15T03:49:49.747Z,22.77
2018-12-15T03:52:17.239Z,23.67
2018-12-15T03:54:44.734Z,24.20
2018-12-15T03:57:12.214Z,23.27
2018-12-15T03:59:40.064Z,23.80
2018-12-15T04:02:07.800Z,25.20
2018-12-15T04:04:35.354Z,23.33
2018-12-15T04:07:02.829Z,23.40
2018-12-15T04:09:30.309Z,23.60
2018-12-15T04:11:57.781Z,25.13
2018-12-15T04:14:25.273Z,23.03
2018-12-15T04:16:52.745Z,23.70
2018-12-15T04:19:20.223Z,23.57
2018-12-15T04:21:47.711Z,23.47
2018-12-15T04:24:15.301Z,24.07
2018-12-15T04:26:43.824Z,21.53
2018-12-15T04:29:11.356Z,23.17
2018-12-15T04:31:39.508Z,23.57
2018-12-15T04:34:07.011Z,22.03
2018-12-15T04:36:34.492Z,22.20
2018-12-15T04:39:02.088Z,21.97
2018-12-15T04:41:30.034Z,22.03
2018-12-15T04:43:57.984Z,24.07
2018-12-15T04:46:25.444Z,19.97
2018-12-15T04:48:52.946Z,21.60
2018-12-15T04:51:20.407Z,21.63
2018-12-15T04:53:47.907Z,19.60
2018-12-15T04:56:16.390Z,21.90
2018-12-15T04:58:43.886Z,22.40
2018-12-15T05:01:11.717Z,20.70
2018-12-15T05:03:39.200Z,20.67
2018-12-15T05:06:06.677Z,21.43
2018-12-15T05:08:34.274Z,21.27
2018-12-15T05:11:01.738Z,20.63
2018-12-15T05:13:29.254Z,20.67
2018-12-15T05:15:56.742Z,19.87
2018-12-15T05:18:24.428Z,20.10
2018-12-15T05:20:51.911Z,21.17
2018-12-15T05:23:19.389Z,20.27
2018-12-15T05:25:47.143Z,20.97
2018-12-15T05:28:14.611Z,20.30
2018-12-15T05:30:42.113Z,19.27
2018-12-15T05:33:09.586Z,19.60
2018-12-15T05:35:37.081Z,19.23
2018-12-15T05:38:04.559Z,20.17
2018-12-15T05:40:32.442Z,19.27
2018-12-15T05:42:59.911Z,18.47
2018-12-15T05:45:27.405Z,18.60
2018-12-15T05:47:54.870Z,17.23
2018-12-15T05:50:22.355Z,18.07
2018-12-15T05:52:49.831Z,18.00
2018-12-15T05:55:17.322Z,18.10
2018-12-15T05:57:44.805Z,17.17
2018-12-15T06:00:12.838Z,17.80
2018-12-15T06:02:40.664Z,15.90
2018-12-15T06:05:09.050Z,16.63
2018-12-15T06:07:37.038Z,16.57
2018-12-15T06:10:05.246Z,17.20
2018-12-15T06:12:32.726Z,16.50
2018-12-15T06:15:00.516Z,15.93
2018-12-15T06:17:27.984Z,15.77
2018-12-15T06:19:56.334Z,15.70
2018-12-15T06:22:23.803Z,15.10
2018-12-15T06:24:51.292Z,14.63
2018-12-15T06:27:19.550Z,14.73
2018-12-15T06:29:47.549Z,15.10
2018-12-15T06:32:15.056Z,14.73
2018-12-15T06:34:42.543Z,15.20
2018-12-15T06:37:10.106Z,18.57
2018-12-15T06:39:37.572Z,14.70
2018-12-15T06:42:05.955Z,14.07
2018-12-15T06:44:33.431Z,13.73
2018-12-15T06:47:00.923Z,13.70
2018-12-15T06:49:28.553Z,14.00
2018-12-15T06:51:56.029Z,13.90
2018-12-15T06:54:24.501Z,12.63
2018-12-15T06:56:51.985Z,13.43
2018-12-15T06:59:19.472Z,14.30
2018-12-15T07:01:46.954Z,13.67
2018-12-15T07:04:14.433Z,13.80
2018-12-15T07:06:42.468Z,13.73
2018-12-15T07:09:09.942Z,13.40
2018-12-15T07:11:37.433Z,12.93
2018-12-15T07:14:05.230Z,12.20
2018-12-15T07:16:32.782Z,13.37
2018-12-15T07:19:00.311Z,12.27
2018-12-15T07:21:27.782Z,17.67
2018-12-15T07:23:55.294Z,13.57
2018-12-15T07:26:23.164Z,13.17
2018-12-15T07:28:51.424Z,12.87
2018-12-15T07:31:18.919Z,14.13
2018-12-15T07:33:46.533Z,12.93
2018-12-15T07:36:14.022Z,12.80
2018-12-15T07:38:41.497Z,13.07
2018-12-15T07:41:08.993Z,12.73
2018-12-15T07:43:36.473Z,13.53
2018-12-15T07:46:04.035Z,13.93
2018-12-15T07:48:31.527Z,13.97
2018-12-15T07:50:58.999Z,13.43
2018-12-15T07:53:26.521Z,12.97
2018-12-15T07:55:54.011Z,13.27
2018-12-15T07:58:22.665Z,12.57
2018-12-15T08:00:50.163Z,13.43
2018-12-15T08:03:18.583Z,13.40
2018-12-15T08:05:46.157Z,13.23
2018-12-15T08:08:13.654Z,13.63
2018-12-15T08:10:46.829Z,13.73
2018-12-15T08:13:16.290Z,14.50
2018-12-15T08:15:43.785Z,14.77
2018-12-15T08:18:11.258Z,14.03
2018-12-15T08:20:38.944Z,14.77
2018-12-15T08:23:06.419Z,14.93
2018-12-15T08:25:33.927Z,13.63
2018-12-15T08:28:01.393Z,13.67
2018-12-15T08:30:28.898Z,14.17
2018-12-15T08:32:56.465Z,12.87
2018-12-15T08:35:23.949Z,13.30
2018-12-15T08:37:51.462Z,13.23
2018-12-15T08:40:18.942Z,13.00
2018-12-15T08:42:46.435Z,13.63
2018-12-15T08:45:13.914Z,13.37
2018-12-15T08:47:41.519Z,12.63
2018-12-15T08:50:09.821Z,14.77
2018-12-15T08:52:37.332Z,12.93
2018-12-15T08:55:05.726Z,13.37
2018-12-15T08:57:33.219Z,12.97
2018-12-15T09:00:00.706Z,13.67
2018-12-15T09:02:28.219Z,12.17
2018-12-15T09:04:55.724Z,13.63
2018-12-15T09:07:23.470Z,13.80
2018-12-15T09:09:50.954Z,13.60
2018-12-15T09:12:18.430Z,13.73
2018-12-15T09:14:45.948Z,13.50
2018-12-15T09:17:13.435Z,14.67
2018-12-15T09:19:40.920Z,13.23
2018-12-15T09:22:11.374Z,13.60
2018-12-15T09:24:37.974Z,13.77
2018-12-15T09:27:06.364Z,13.40
2018-12-15T09:29:33.854Z,13.43
2018-12-15T09:32:02.251Z,13.67
2018-12-15T09:34:29.751Z,14.00
2018-12-15T09:36:57.252Z,12.53
2018-12-15T09:39:24.729Z,14.63
2018-12-15T09:41:52.215Z,13.63
2018-12-15T09:44:19.710Z,12.57
2018-12-15T09:46:47.176Z,13.73
2018-12-15T09:49:17.797Z,13.80
2018-12-15T09:51:44.148Z,14.73
2018-12-15T09:54:11.654Z,14.20
2018-12-15T09:56:39.338Z,13.37
2018-12-15T09:59:06.837Z,13.87
2018-12-15T10:01:34.306Z,13.87
2018-12-15T10:04:01.836Z,14.60
2018-12-15T10:06:29.311Z,14.33
2018-12-15T10:08:57.546Z,12.97
2018-12-15T10:11:25.046Z,14.80
2018-12-15T10:13:53.318Z,14.03
2018-12-15T10:16:20.890Z,14.83
2018-12-15T10:18:48.382Z,14.53
2018-12-15T10:21:15.843Z,14.50
2018-12-15T10:23:43.339Z,14.20
2018-12-15T10:26:10.830Z,14.50
2018-12-15T10:28:38.328Z,14.43
2018-12-15T10:31:11.432Z,14.40
2018-12-15T10:33:38.986Z,13.33
2018-12-15T10:36:06.514Z,13.60
2018-12-15T10:38:35.025Z,14.40
2018-12-15T10:41:02.510Z,13.30
2018-12-15T10:43:30.009Z,14.50
2018-12-15T10:45:57.489Z,13.33
2018-12-15T10:48:24.972Z,14.43
2018-12-15T10:50:52.470Z,14.20
2018-12-15T10:53:19.956Z,14.17
2018-12-15T10:55:47.441Z,13.73
2018-12-15T10:58:14.917Z,14.67
2018-12-15T11:00:48.184Z,13.97
2018-12-15T11:03:15.719Z,14.50
2018-12-15T11:05:43.215Z,14.50
2018-12-15T11:08:10.694Z,15.40
2018-12-15T11:10:38.195Z,14.67
2018-12-15T11:13:05.726Z,15.50
2018-12-15T11:15:33.201Z,14.20
2018-12-15T11:18:00.689Z,13.40
2018-12-15T11:20:28.199Z,14.83
2018-12-15T11:22:55.689Z,14.90
2018-12-15T11:25:23.182Z,15.93
2018-12-15T11:27:50.818Z,25.60
2018-12-15T11:30:18.310Z,14.10
2018-12-15T11:32:45.804Z,14.77
2018-12-15T11:35:14.170Z,15.07
2018-12-15T11:37:41.635Z,15.27
2018-12-15T11:40:09.134Z,13.97
2018-12-15T11:42:36.613Z,14.97
2018-12-15T11:45:05.238Z,15.03
2018-12-15T11:47:32.944Z,14.67
2018-12-15T11:50:00.422Z,15.10
2018-12-15T11:52:27.934Z,15.37
2018-12-15T11:54:55.423Z,15.17
2018-12-15T11:57:22.923Z,15.00
2018-12-15T11:59:50.415Z,14.83
2018-12-15T12:02:17.900Z,14.87
2018-12-15T12:04:45.372Z,14.33
2018-12-15T12:07:12.902Z,16.37
2018-12-15T12:09:40.368Z,15.40
2018-12-15T12:12:07.892Z,14.43
2018-12-15T12:14:35.505Z,16.03
2018-12-15T12:17:03.044Z,14.63
2018-12-15T12:19:30.525Z,15.83
2018-12-15T12:21:58.019Z,15.13
2018-12-15T12:24:25.524Z,15.97
2018-12-15T12:26:53.093Z,15.40
2018-12-15T12:29:20.588Z,14.57
2018-12-15T12:31:48.073Z,15.47
2018-12-15T12:34:15.546Z,15.73
2018-12-15T12:36:43.039Z,15.80
2018-12-15T12:39:10.505Z,15.03
2018-12-15T12:41:38.018Z,14.13
2018-12-15T12:44:05.503Z,17.17
2018-12-15T12:46:34.091Z,15.70
2018-12-15T12:49:01.562Z,14.93
2018-12-15T12:51:29.065Z,14.87
2018-12-15T12:53:56.567Z,13.83
2018-12-15T12:56:24.070Z,14.57
2018-12-15T12:58:51.549Z,15.07
2018-12-15T13:01:19.019Z,15.97
2018-12-15T13:03:46.509Z,16.20
2018-12-15T13:06:14.025Z,15.63
2018-12-15T13:08:41.555Z,16.17
2018-12-15T13:11:09.047Z,14.70
2018-12-15T13:13:36.535Z,15.13
2018-12-15T13:16:04.039Z,15.07
2018-12-15T13:18:31.542Z,14.03
2018-12-15T13:20:59.015Z,15.00
2018-12-15T13:23:26.495Z,14.90
2018-12-15T13:25:53.982Z,15.43
2018-12-15T13:28:21.467Z,15.63
2018-12-15T13:30:48.962Z,15.00
2018-12-15T13:33:32.148Z,15.67
2018-12-15T13:35:59.672Z,15.17
2018-12-15T13:38:27.155Z,16.10
2018-12-15T13:40:54.707Z,17.67
2018-12-15T13:43:22.200Z,17.93
2018-12-15T13:45:49.678Z,16.80
2018-12-15T13:48:17.193Z,16.77
2018-12-15T13:50:44.680Z,16.57
2018-12-15T13:53:12.148Z,17.20
2018-12-15T13:55:39.631Z,15.57
2018-12-15T13:58:07.294Z,15.73
2018-12-15T14:00:34.765Z,16.30
2018-12-15T14:03:02.250Z,16.47
2018-12-15T14:05:30.291Z,16.77
2018-12-15T14:07:57.819Z,17.00
2018-12-15T14:10:26.126Z,17.00
2018-12-15T14:12:53.617Z,16.40
2018-12-15T14:15:21.096Z,15.27
2018-12-15T14:17:49.453Z,16.70
2018-12-15T14:20:17.268Z,17.20
2018-12-15T14:22:44.744Z,15.90
2018-12-15T14:25:12.298Z,16.80
2018-12-15T14:27:40.571Z,17.47
2018-12-15T14:30:08.278Z,16.27
2018-12-15T14:32:36.361Z,15.47
2018-12-15T14:35:05.883Z,17.23
2018-12-15T14:37:33.358Z,15.50
2018-12-15T14:40:00.843Z,16.00
2018-12-15T14:42:28.323Z,15.57
2018-12-15T14:44:55.810Z,18.33
2018-12-15T14:47:23.499Z,16.77
2018-12-15T14:49:50.977Z,16.47
2018-12-15T14:52:18.530Z,15.97
2018-12-15T14:54:46.173Z,16.23
2018-12-15T14:57:15.597Z,15.97
2018-12-15T14:59:43.095Z,15.67
2018-12-15T15:02:11.812Z,16.57
2018-12-15T15:04:40.749Z,17.30
2018-12-15T15:07:10.088Z,17.07
2018-12-15T15:09:38.915Z,16.00
2018-12-15T15:12:08.407Z,16.63
2018-12-15T15:14:37.760Z,17.97
2018-12-15T15:17:06.115Z,16.60
2018-12-15T15:19:35.971Z,17.43
2018-12-15T15:22:04.743Z,16.97
2018-12-15T15:24:33.127Z,18.33
2018-12-15T15:27:01.964Z,18.07
2018-12-15T15:29:30.632Z,18.07
2018-12-15T15:31:59.213Z,17.27
2018-12-15T15:34:28.966Z,18.03
2018-12-15T15:36:57.350Z,18.53
2018-12-15T15:39:24.903Z,16.93
2018-12-15T15:41:52.382Z,16.60
2018-12-15T15:44:19.876Z,18.27
2018-12-15T15:46:47.476Z,17.87
2018-12-15T15:49:14.983Z,16.73
2018-12-15T15:51:42.476Z,17.00
2018-12-15T15:54:09.980Z,15.97
2018-12-15T15:56:37.443Z,17.40
2018-12-15T15:59:04.922Z,17.33
2018-12-15T16:01:32.405Z,17.57
2018-12-15T16:04:03.175Z,17.13
2018-12-15T16:06:31.952Z,16.03
2018-12-15T16:09:03.484Z,17.27
2018-12-15T16:11:32.756Z,18.37
2018-12-15T16:14:01.973Z,18.00
2018-12-15T16:16:34.282Z,17.90
2018-12-15T16:19:02.952Z,16.73
2018-12-15T16:21:33.736Z,17.80
2018-12-15T16:24:02.876Z,17.80
2018-12-15T16:26:32.195Z,18.80
2018-12-15T16:29:01.922Z,17.10
2018-12-15T16:31:33.041Z,15.53
2018-12-15T16:34:03.100Z,16.37
2018-12-15T16:36:32.205Z,16.10
2018-12-15T16:39:01.760Z,16.67
2018-12-15T16:41:31.038Z,16.20
2018-12-15T16:43:59.828Z,15.90
2018-12-15T16:46:30.142Z,15.83
2018-12-15T16:48:59.405Z,17.67
2018-12-15T16:51:30.310Z,15.73
2018-12-15T16:54:01.370Z,16.17
2018-12-15T16:56:32.082Z,17.20
2018-12-15T16:59:04.221Z,16.03
2018-12-15T17:01:37.741Z,16.87
2018-12-15T17:04:09.127Z,17.53
2018-12-15T17:06:38.660Z,16.63
2018-12-15T17:09:10.681Z,18.50
2018-12-15T17:11:41.265Z,17.53
2018-12-15T17:14:12.865Z,16.77
2018-12-15T17:16:43.403Z,17.00
2018-12-15T17:19:11.021Z,17.43
2018-12-15T17:21:40.741Z,16.70
2018-12-15T17:24:08.299Z,17.00
2018-12-15T17:26:35.845Z,16.97
2018-12-15T17:29:03.398Z,17.03
2018-12-15T17:31:30.902Z,17.50
2018-12-15T17:33:58.489Z,17.23
2018-12-15T17:36:25.983Z,16.97
2018-12-15T17:38:53.469Z,16.97
2018-12-15T17:41:20.966Z,15.77
2018-12-15T17:43:48.442Z,17.33
2018-12-15T17:46:15.992Z,15.93
2018-12-15T17:48:43.601Z,17.90
2018-12-15T17:51:11.150Z,16.40
2018-12-15T17:53:38.644Z,17.63
2018-12-15T17:56:06.126Z,17.63
2018-12-15T17:58:33.622Z,17.80
2018-12-15T18:01:01.108Z,17.67
2018-12-15T18:03:28.594Z,16.97
2018-12-15T18:05:56.081Z,16.63
2018-12-15T18:08:23.564Z,17.07
2018-12-15T18:10:51.050Z,17.30
2018-12-15T18:13:18.538Z,17.27
2018-12-15T18:15:46.154Z,16.27
2018-12-15T18:18:13.641Z,17.43
2018-12-15T18:20:58.495Z,16.57
2018-12-15T18:23:51.368Z,16.43
2018-12-15T18:26:20.631Z,17.00
2018-12-15T18:29:11.906Z,17.00
2018-12-15T18:31:41.796Z,17.63
2018-12-15T18:34:23.605Z,19.23
2018-12-15T18:36:57.049Z,17.97
2018-12-15T18:39:27.378Z,18.00
2018-12-15T18:42:10.980Z,19.20
2018-12-15T18:53:48.983Z,17.07
2018-12-15T18:56:16.467Z,15.67
2018-12-15T19:01:54.025Z,17.37
2018-12-15T19:04:23.664Z,18.53
2018-12-15T19:06:53.421Z,18.07
2018-12-15T19:09:20.975Z,18.17
2018-12-15T19:11:48.458Z,18.43
2018-12-15T19:14:15.967Z,17.50
2018-12-15T19:16:43.453Z,17.60
2018-12-15T19:19:10.998Z,17.80
2018-12-15T19:21:38.481Z,17.27
2018-12-15T19:24:05.979Z,17.10
2018-12-15T19:26:33.468Z,18.13
2018-12-15T19:29:00.970Z,18.03
2018-12-15T19:31:28.444Z,18.40
2018-12-15T19:33:55.922Z,18.90
2018-12-15T19:36:23.461Z,18.47
2018-12-15T19:38:50.960Z,18.87
2018-12-15T19:41:18.444Z,17.43
2018-12-15T19:43:45.944Z,17.23
2018-12-15T19:46:13.422Z,20.77
2018-12-15T19:48:40.910Z,19.97
2018-12-15T19:51:08.377Z,18.43
2018-12-15T19:53:35.882Z,18.47
2018-12-15T19:56:03.374Z,18.57
2018-12-15T19:58:30.994Z,19.53
2018-12-15T20:00:58.498Z,18.40
2018-12-15T20:03:26.122Z,27.40
2018-12-15T20:05:53.598Z,18.20
2018-12-15T20:08:21.073Z,19.33
2018-12-15T20:10:48.590Z,18.13
2018-12-15T20:13:16.091Z,20.23
2018-12-15T20:15:43.585Z,22.00
2018-12-15T20:18:11.087Z,19.20
2018-12-15T20:20:38.684Z,19.80
2018-12-15T20:23:06.243Z,19.00
2018-12-15T20:25:33.717Z,19.20
2018-12-15T20:28:01.414Z,18.07
2018-12-15T20:30:28.905Z,19.37
2018-12-15T20:32:56.377Z,18.97
2018-12-15T20:35:23.971Z,19.13
2018-12-15T20:37:51.470Z,19.03
2018-12-15T20:40:18.973Z,18.53
2018-12-15T20:42:46.469Z,18.30
2018-12-15T20:45:13.967Z,19.20
2018-12-15T20:47:42.375Z,17.50
2018-12-15T20:50:10.003Z,20.87
2018-12-15T20:52:37.497Z,18.03
2018-12-15T20:55:05.137Z,18.40
2018-12-15T20:57:33.577Z,19.73
2018-12-15T21:00:01.081Z,21.23
2018-12-15T21:02:28.566Z,17.40
2018-12-15T21:04:56.055Z,18.67
2018-12-15T21:07:23.571Z,21.43
2018-12-15T21:09:51.784Z,20.10
2018-12-15T21:12:19.299Z,20.30
2018-12-15T21:14:46.773Z,20.83
2018-12-15T21:17:14.261Z,17.87
2018-12-15T21:19:47.702Z,18.73
2018-12-15T21:22:11.310Z,19.63
2018-12-15T21:24:38.794Z,17.83
2018-12-15T21:27:06.746Z,17.17
2018-12-15T21:29:34.214Z,20.40
2018-12-15T21:32:01.764Z,18.40
2018-12-15T21:34:29.252Z,19.33
2018-12-15T21:36:56.736Z,18.47
2018-12-15T21:39:24.205Z,18.63
2018-12-15T21:41:51.706Z,18.77
2018-12-15T21:44:19.166Z,20.83
2018-12-15T21:46:46.678Z,19.60
2018-12-15T21:49:14.160Z,19.53
2018-12-15T21:51:41.657Z,20.33
2018-12-15T21:54:09.163Z,20.63
2018-12-15T21:56:38.123Z,19.50
2018-12-15T21:59:05.612Z,19.83
2018-12-15T22:01:33.105Z,25.30
2018-12-15T22:04:00.596Z,20.13
2018-12-15T22:06:29.224Z,17.63
2018-12-15T22:08:56.699Z,19.13
2018-12-15T22:11:24.197Z,19.13
2018-12-15T22:13:51.699Z,19.33
2018-12-15T22:16:19.685Z,18.30
2018-12-15T22:18:47.227Z,19.57
2018-12-15T22:21:14.707Z,19.07
2018-12-15T22:23:42.199Z,18.17
2018-12-15T22:26:09.676Z,18.17
2018-12-15T22:28:37.194Z,18.77
2018-12-15T22:31:04.679Z,19.70
2018-12-15T22:33:32.167Z,17.67
2018-12-15T22:35:59.692Z,18.17
2018-12-15T22:38:27.307Z,22.23
2018-12-15T22:40:54.883Z,18.80
2018-12-15T22:43:22.370Z,20.03
2018-12-15T22:45:49.848Z,19.60
2018-12-15T22:48:17.360Z,17.60
2018-12-15T22:50:44.850Z,19.07
2018-12-15T22:53:12.500Z,17.50
2018-12-15T22:55:39.984Z,19.70
2018-12-15T22:58:07.488Z,19.43
2018-12-15T23:03:37.703Z,18.93
2018-12-15T23:06:05.729Z,20.10
2018-12-15T23:08:33.737Z,21.07
2018-12-15T23:11:01.229Z,22.10
2018-12-15T23:13:28.725Z,19.83
2018-12-15T23:15:56.224Z,20.47
2018-12-15T23:18:24.419Z,19.77
2018-12-15T23:20:51.897Z,20.57
2018-12-15T23:23:19.439Z,21.53
2018-12-15T23:25:46.935Z,19.80
2018-12-15T23:28:15.609Z,25.30
2018-12-15T23:30:43.149Z,20.67
2018-12-15T23:33:10.652Z,19.33
2018-12-15T23:35:38.131Z,20.37
2018-12-15T23:38:05.634Z,19.53
2018-12-15T23:40:33.115Z,19.10
2018-12-15T23:43:00.571Z,19.13
2018-12-15T23:45:28.049Z,21.37
2018-12-15T23:47:55.597Z,21.20
2018-12-15T23:50:23.245Z,18.37
2018-12-15T23:52:50.737Z,21.40
2018-12-15T23:55:18.245Z,19.37
2018-12-15T23:57:45.935Z,20.50
